createdAt,value
2022-11-14T00:00:53.194Z,8.50
2022-11-14T00:04:13.595Z,8.18
2022-11-14T00:07:35.134Z,8.60
2022-11-14T00:10:55.654Z,8.30
2022-11-14T00:14:15.944Z,8.20
2022-11-14T00:17:36.342Z,7.80
2022-11-14T00:20:56.648Z,7.57
2022-11-14T00:24:16.909Z,8.02
2022-11-14T00:27:37.328Z,8.05
2022-11-14T00:30:57.787Z,7.63
2022-11-14T00:34:18.027Z,7.38
2022-11-14T00:37:38.402Z,7.35
2022-11-14T00:40:58.775Z,7.72
2022-11-14T00:44:19.220Z,7.88
2022-11-14T00:47:39.763Z,7.10
2022-11-14T00:51:00.273Z,7.68
2022-11-14T00:54:20.824Z,7.35
2022-11-14T00:57:41.121Z,6.68
2022-11-14T01:01:01.482Z,6.85
2022-11-14T01:04:21.827Z,6.90
2022-11-14T01:07:42.402Z,8.18
2022-11-14T01:11:13.255Z,7.88
2022-11-14T01:14:33.326Z,6.95
2022-11-14T01:17:53.677Z,7.95
2022-11-14T01:21:14.581Z,7.55
2022-11-14T01:24:35.423Z,7.82
2022-11-14T01:27:55.956Z,7.75
2022-11-14T01:31:22.421Z,7.05
2022-11-14T01:34:42.656Z,7.45
2022-11-14T01:38:04.094Z,8.13
2022-11-14T01:41:25.335Z,11.63
2022-11-14T01:44:48.685Z,7.93
2022-11-14T01:48:32.631Z,7.45
2022-11-14T01:52:03.975Z,8.07
2022-11-14T01:55:24.238Z,7.95
2022-11-14T01:59:04.524Z,7.90
2022-11-14T02:02:25.921Z,8.25
2022-11-14T02:05:47.915Z,7.53
2022-11-14T02:09:08.635Z,9.30
2022-11-14T02:12:29.848Z,8.77
2022-11-14T02:15:53.189Z,9.98
2022-11-14T02:19:15.601Z,15.10
2022-11-14T02:22:36.544Z,7.82
2022-11-14T02:25:57.026Z,8.48
2022-11-14T02:29:17.050Z,5.75
2022-11-14T02:33:04.370Z,5.95
2022-11-14T02:36:18.014Z,5.68
2022-11-14T02:39:39.166Z,5.10
2022-11-14T02:42:59.753Z,5.88
2022-11-14T02:46:20.597Z,5.28
2022-11-14T02:49:40.958Z,5.60
2022-11-14T02:53:01.371Z,5.53
2022-11-14T02:56:21.640Z,5.40
2022-11-14T02:59:42.192Z,6.18
2022-11-14T03:03:02.509Z,5.60
2022-11-14T03:06:23.195Z,14.25
2022-11-14T03:09:43.614Z,16.58
2022-11-14T03:13:03.954Z,25.90
2022-11-14T03:16:24.098Z,15.98
2022-11-14T03:19:44.429Z,22.52
2022-11-14T03:23:04.924Z,41.33
2022-11-14T03:26:25.244Z,29.15
2022-11-14T03:29:45.610Z,28.17
2022-11-14T03:33:05.817Z,24.83
2022-11-14T03:36:26.326Z,26.63
2022-11-14T03:39:46.476Z,13.85
2022-11-14T03:43:07.176Z,12.48
2022-11-14T03:46:30.264Z,25.58
2022-11-14T03:49:51.384Z,16.48
2022-11-14T03:53:11.744Z,12.68
2022-11-14T03:56:31.826Z,9.18
2022-11-14T03:59:52.132Z,13.85
2022-11-14T04:03:12.601Z,8.35
2022-11-14T04:06:33.568Z,9.80
2022-11-14T04:09:53.696Z,13.57
2022-11-14T04:13:14.063Z,7.80
2022-11-14T04:16:34.439Z,6.78
2022-11-14T04:19:54.944Z,9.45
2022-11-14T04:23:15.950Z,8.07
2022-11-14T04:26:36.365Z,7.60
2022-11-14T04:29:56.830Z,7.30
2022-11-14T04:33:17.100Z,10.75
2022-11-14T04:36:37.413Z,8.88
2022-11-14T04:40:00.849Z,8.57
2022-11-14T04:43:21.243Z,7.45
2022-11-14T04:46:41.383Z,7.85
2022-11-14T04:50:01.785Z,8.68
2022-11-14T04:53:23.865Z,7.78
2022-11-14T04:56:44.256Z,8.18
2022-11-14T05:00:05.962Z,10.40
2022-11-14T05:03:26.148Z,8.35
2022-11-14T05:06:46.579Z,9.77
2022-11-14T05:10:07.530Z,9.02
2022-11-14T05:13:27.981Z,7.82
2022-11-14T05:16:48.492Z,8.10
2022-11-14T05:20:09.018Z,9.60
2022-11-14T05:23:29.953Z,7.32
2022-11-14T05:26:50.410Z,8.80
2022-11-14T05:30:11.421Z,9.25
2022-11-14T05:33:32.363Z,9.02
2022-11-14T05:36:52.778Z,9.40
2022-11-14T05:40:13.165Z,9.57
2022-11-14T05:43:33.950Z,8.65
2022-11-14T05:46:54.331Z,8.98
2022-11-14T05:50:16.315Z,8.80
2022-11-14T05:53:36.823Z,10.15
2022-11-14T05:56:57.207Z,8.68
2022-11-14T06:00:17.810Z,8.80
2022-11-14T06:03:41.119Z,9.02
2022-11-14T06:07:01.044Z,9.55
2022-11-14T06:10:21.333Z,10.93
2022-11-14T06:13:42.845Z,11.48
2022-11-14T06:17:03.227Z,12.45
2022-11-14T06:20:26.698Z,11.57
2022-11-14T06:23:48.263Z,10.65
2022-11-14T06:27:08.685Z,10.18
2022-11-14T06:30:28.770Z,12.52
2022-11-14T06:33:49.728Z,10.40
2022-11-14T06:37:09.917Z,11.98
2022-11-14T06:40:30.964Z,12.35
2022-11-14T06:43:53.757Z,11.82
2022-11-14T06:47:14.275Z,11.93
2022-11-14T06:50:38.361Z,10.48
2022-11-14T06:54:00.900Z,12.07
2022-11-14T06:57:21.314Z,11.77
2022-11-14T07:00:41.423Z,13.25
2022-11-14T07:04:02.666Z,10.55
2022-11-14T07:07:23.451Z,11.57
2022-11-14T07:10:44.148Z,12.27
2022-11-14T07:14:05.913Z,10.18
2022-11-14T07:17:31.540Z,10.55
2022-11-14T07:21:13.371Z,9.70
2022-11-14T07:24:33.491Z,10.35
2022-11-14T07:27:54.061Z,11.02
2022-11-14T07:31:16.842Z,9.35
2022-11-14T07:34:36.796Z,10.05
2022-11-14T07:38:03.964Z,9.73
2022-11-14T07:41:24.253Z,8.65
2022-11-14T07:44:44.817Z,13.57
2022-11-14T07:48:04.981Z,10.60
2022-11-14T07:51:25.295Z,9.60
2022-11-14T07:54:45.591Z,10.57
2022-11-14T07:58:05.866Z,11.90
2022-11-14T08:01:27.279Z,11.32
2022-11-14T08:04:47.824Z,11.98
2022-11-14T08:08:08.059Z,11.18
2022-11-14T08:11:47.108Z,11.73
2022-11-14T08:15:08.838Z,11.35
2022-11-14T08:18:29.324Z,10.75
2022-11-14T08:21:49.829Z,11.40
2022-11-14T08:25:10.073Z,11.90
2022-11-14T08:28:31.004Z,10.07
2022-11-14T08:31:54.556Z,10.75
2022-11-14T08:38:39.499Z,11.23
2022-11-14T08:41:59.715Z,11.18
2022-11-14T08:45:20.065Z,9.30
2022-11-14T08:48:40.449Z,7.97
2022-11-14T08:52:00.551Z,9.70
2022-11-14T08:55:21.204Z,8.48
2022-11-14T08:58:41.351Z,8.57
2022-11-14T09:02:01.597Z,11.43
2022-11-14T09:05:22.211Z,9.30
2022-11-14T09:08:42.581Z,8.45
2022-11-14T09:12:02.826Z,9.18
2022-11-14T09:15:25.113Z,10.77
2022-11-14T09:18:45.744Z,9.57
2022-11-14T09:22:06.116Z,8.73
2022-11-14T09:25:26.595Z,8.55
2022-11-14T09:28:46.718Z,8.35
2022-11-14T09:32:07.394Z,9.13
2022-11-14T09:35:28.965Z,8.88
2022-11-14T09:38:51.498Z,9.85
2022-11-14T09:42:17.295Z,8.02
2022-11-14T09:45:42.318Z,10.00
2022-11-14T09:49:02.400Z,10.38
2022-11-14T09:52:36.893Z,10.60
2022-11-14T09:55:58.487Z,8.65
2022-11-14T09:59:18.654Z,8.15
2022-11-14T10:03:08.429Z,7.60
2022-11-14T10:07:02.703Z,7.43
2022-11-14T10:10:51.316Z,7.88
2022-11-14T10:14:41.547Z,7.18
2022-11-14T10:18:14.033Z,7.63
2022-11-14T10:21:53.129Z,7.50
2022-11-14T10:25:24.893Z,8.38
2022-11-14T10:29:30.034Z,8.27
2022-11-14T10:32:53.272Z,8.63
2022-11-14T10:36:31.987Z,7.72
2022-11-14T10:39:55.427Z,9.07
2022-11-14T10:43:26.208Z,7.95
2022-11-14T10:46:51.146Z,8.05
2022-11-14T10:50:19.621Z,7.95
2022-11-14T10:53:57.409Z,13.70
2022-11-14T10:57:20.408Z,9.00
2022-11-14T11:00:40.593Z,9.02
2022-11-14T11:04:21.624Z,8.30
2022-11-14T11:11:56.883Z,7.03
2022-11-14T11:15:21.537Z,9.15
2022-11-14T11:18:41.861Z,7.97
2022-11-14T11:22:02.062Z,10.57
2022-11-14T11:25:28.503Z,9.75
2022-11-14T11:29:11.132Z,9.80
2022-11-14T11:32:31.030Z,19.65
2022-11-14T11:35:57.767Z,12.65
2022-11-14T11:39:26.088Z,10.00
2022-11-14T11:46:38.979Z,9.23
2022-11-14T11:50:02.219Z,7.25
2022-11-14T11:53:28.728Z,6.28
2022-11-14T11:56:57.613Z,6.47
2022-11-14T12:00:21.172Z,6.57
2022-11-14T12:03:51.304Z,8.13
2022-11-14T12:07:16.400Z,7.53
2022-11-14T12:10:40.156Z,6.30
2022-11-14T12:14:42.575Z,6.40
2022-11-14T12:18:45.044Z,7.38
2022-11-14T12:22:28.782Z,6.82
2022-11-14T12:26:25.593Z,6.68
2022-11-14T12:29:56.883Z,6.63
2022-11-14T12:33:27.109Z,6.78
2022-11-14T12:36:47.562Z,6.57
2022-11-14T12:40:18.720Z,6.45
2022-11-14T12:43:45.189Z,7.03
2022-11-14T12:47:08.744Z,5.93
2022-11-14T12:50:47.282Z,6.93
2022-11-14T12:54:44.055Z,6.22
2022-11-14T12:58:11.583Z,5.90
2022-11-14T13:01:50.519Z,5.78
2022-11-14T13:05:22.448Z,5.95
2022-11-14T13:08:47.788Z,11.13
2022-11-14T13:12:51.581Z,10.88
2022-11-14T13:16:48.170Z,7.97
2022-11-14T13:20:47.679Z,8.45
2022-11-14T13:24:09.856Z,12.13
2022-11-14T13:28:00.354Z,7.30
2022-11-14T13:31:16.796Z,7.05
2022-11-14T13:34:55.109Z,6.18
2022-11-14T13:38:47.081Z,7.53
2022-11-14T13:42:13.601Z,6.13
2022-11-14T13:46:42.718Z,7.18
2022-11-14T13:50:24.854Z,6.23
2022-11-14T13:53:45.483Z,6.00
2022-11-14T13:57:05.823Z,5.78
2022-11-14T14:00:41.965Z,6.60
2022-11-14T14:04:23.988Z,6.35
2022-11-14T14:08:21.817Z,7.63
2022-11-14T14:12:18.950Z,7.47
2022-11-14T14:15:51.181Z,6.60
2022-11-14T14:19:52.765Z,7.97
2022-11-14T14:23:46.212Z,6.00
2022-11-14T14:27:35.612Z,6.35
2022-11-14T14:31:07.715Z,7.78
2022-11-14T14:34:34.323Z,7.55
2022-11-14T14:37:56.102Z,7.25
2022-11-14T14:41:19.309Z,6.57
2022-11-14T14:44:40.513Z,6.57
2022-11-14T14:48:14.476Z,7.05
2022-11-14T14:51:38.908Z,8.20
2022-11-14T14:55:02.361Z,5.80
2022-11-14T14:58:22.885Z,6.60
2022-11-14T15:01:44.209Z,5.60
2022-11-14T15:05:05.833Z,5.60
2022-11-14T15:08:27.361Z,6.75
2022-11-14T15:11:51.196Z,5.90
2022-11-14T15:15:16.676Z,5.20
2022-11-14T15:18:37.621Z,5.25
2022-11-14T15:22:23.898Z,5.28
2022-11-14T15:25:44.685Z,5.53
2022-11-14T15:29:16.989Z,5.90
2022-11-14T15:32:37.863Z,5.97
2022-11-14T15:36:13.180Z,5.70
2022-11-14T15:39:33.300Z,5.70
2022-11-14T15:42:53.731Z,5.28
2022-11-14T15:46:33.518Z,6.15
2022-11-14T15:50:22.478Z,6.85
2022-11-14T15:53:49.084Z,5.80
2022-11-14T15:57:14.787Z,6.43
2022-11-14T16:00:34.998Z,7.15
2022-11-14T16:03:55.436Z,6.05
2022-11-14T16:07:17.465Z,5.50
2022-11-14T16:10:37.858Z,7.20
2022-11-14T16:13:57.814Z,5.72
2022-11-14T16:17:18.550Z,5.80
2022-11-14T16:20:39.824Z,6.13
2022-11-14T16:24:01.286Z,5.03
2022-11-14T16:27:21.479Z,6.30
2022-11-14T16:30:42.221Z,5.85
2022-11-14T16:34:14.032Z,7.18
2022-11-14T16:37:34.133Z,6.38
2022-11-14T16:40:54.600Z,6.43
2022-11-14T16:44:20.118Z,5.45
2022-11-14T16:47:40.957Z,5.57
2022-11-14T16:51:32.977Z,5.90
2022-11-14T16:54:50.607Z,6.65
2022-11-14T16:58:15.778Z,6.47
2022-11-14T17:01:38.439Z,6.97
2022-11-14T17:04:59.152Z,7.68
2022-11-14T17:08:20.056Z,6.50
2022-11-14T17:11:44.720Z,7.40
2022-11-14T17:15:05.872Z,6.40
2022-11-14T17:18:26.425Z,5.90
2022-11-14T17:21:46.641Z,6.32
2022-11-14T17:25:11.775Z,6.97
2022-11-14T17:28:33.601Z,6.72
2022-11-14T17:32:12.451Z,5.82
2022-11-14T17:36:13.340Z,5.70
2022-11-14T17:39:39.207Z,7.07
2022-11-14T17:43:20.699Z,8.05
2022-11-14T17:47:07.416Z,6.10
2022-11-14T17:50:30.811Z,5.90
2022-11-14T17:53:53.810Z,5.57
2022-11-14T17:57:16.650Z,5.03
2022-11-14T18:01:15.484Z,5.85
2022-11-14T18:07:59.291Z,5.18
2022-11-14T18:11:20.531Z,7.00
2022-11-14T18:14:40.833Z,6.40
2022-11-14T18:18:01.254Z,5.60
2022-11-14T18:21:26.734Z,6.65
2022-11-14T18:24:47.362Z,5.07
2022-11-14T18:28:07.842Z,5.18
2022-11-14T18:31:29.020Z,9.90
2022-11-14T18:34:49.226Z,8.55
2022-11-14T18:38:12.068Z,10.05
2022-11-14T18:41:34.694Z,8.45
2022-11-14T18:44:55.219Z,5.80
2022-11-14T18:48:15.871Z,5.78
2022-11-14T18:51:42.193Z,6.57
2022-11-14T18:55:04.827Z,5.10
2022-11-14T18:58:25.812Z,5.85
2022-11-14T19:01:46.196Z,5.57
2022-11-14T19:05:06.814Z,6.15
2022-11-14T19:08:34.066Z,6.18
2022-11-14T19:15:33.786Z,6.10
2022-11-14T19:18:59.031Z,6.07
2022-11-14T19:22:22.917Z,5.50
2022-11-14T19:25:47.295Z,6.25
2022-11-14T19:29:13.397Z,6.00
2022-11-14T19:32:35.059Z,5.05
2022-11-14T19:35:56.973Z,5.45
2022-11-14T19:39:22.208Z,5.43
2022-11-14T19:42:43.928Z,5.28
2022-11-14T19:46:07.075Z,5.32
2022-11-14T19:49:27.402Z,5.93
2022-11-14T19:52:47.678Z,5.07
2022-11-14T19:56:13.449Z,6.38
2022-11-14T19:59:33.606Z,5.35
2022-11-14T20:02:54.262Z,5.70
2022-11-14T20:06:15.574Z,4.78
2022-11-14T20:09:35.854Z,5.97
2022-11-14T20:12:56.641Z,6.72
2022-11-14T20:16:21.375Z,6.15
2022-11-14T20:19:42.072Z,5.55
2022-11-14T20:23:03.227Z,5.50
2022-11-14T20:26:26.765Z,7.63
2022-11-14T20:29:50.551Z,5.10
2022-11-14T20:33:12.146Z,4.65
2022-11-14T20:36:56.565Z,5.25
2022-11-14T20:40:15.077Z,5.15
2022-11-14T20:43:38.723Z,5.80
2022-11-14T20:47:03.351Z,5.82
2022-11-14T20:50:31.847Z,5.45
2022-11-14T20:54:19.896Z,5.28
2022-11-14T20:57:42.910Z,4.65
2022-11-14T21:01:03.857Z,4.82
2022-11-14T21:04:24.130Z,6.25
2022-11-14T21:07:57.530Z,5.75
2022-11-14T21:11:18.787Z,5.20
2022-11-14T21:14:39.290Z,6.60
2022-11-14T21:18:00.006Z,5.25
2022-11-14T21:21:31.383Z,4.75
2022-11-14T21:24:52.360Z,4.97
2022-11-14T21:28:13.825Z,6.00
2022-11-14T21:35:21.956Z,5.28
2022-11-14T21:38:42.310Z,5.05
2022-11-14T21:42:02.723Z,5.47
2022-11-14T21:45:23.522Z,5.07
2022-11-14T21:48:50.627Z,5.65
2022-11-14T21:52:13.778Z,5.82
2022-11-14T21:55:35.909Z,6.85
2022-11-14T21:59:15.989Z,5.43
2022-11-14T22:02:55.607Z,5.35
2022-11-14T22:06:16.228Z,5.38
2022-11-14T22:09:46.104Z,5.68
2022-11-14T22:13:06.602Z,6.22
2022-11-14T22:16:27.638Z,6.00
2022-11-14T22:19:47.758Z,5.13
2022-11-14T22:23:08.109Z,6.28
2022-11-14T22:26:28.949Z,5.72
2022-11-14T22:29:49.275Z,6.00
2022-11-14T22:33:10.413Z,5.47
2022-11-14T22:36:33.452Z,5.00
2022-11-14T22:39:53.825Z,5.65
2022-11-14T22:43:14.222Z,4.63
2022-11-14T22:46:34.758Z,5.38
2022-11-14T22:49:56.143Z,4.72
2022-11-14T22:53:17.185Z,6.00
2022-11-14T22:56:37.869Z,5.63
2022-11-14T22:59:58.449Z,6.30
2022-11-14T23:03:21.090Z,5.90
2022-11-14T23:06:41.534Z,4.95
2022-11-14T23:10:04.711Z,4.63
2022-11-14T23:13:25.214Z,5.80
2022-11-14T23:16:47.753Z,5.10
2022-11-14T23:20:16.246Z,5.28
2022-11-14T23:23:44.034Z,6.25
2022-11-14T23:27:17.717Z,5.82
2022-11-14T23:30:49.271Z,4.80
2022-11-14T23:34:11.125Z,6.35
2022-11-14T23:37:31.770Z,4.80
2022-11-14T23:41:00.744Z,5.93
2022-11-14T23:44:26.141Z,5.25
2022-11-14T23:47:46.637Z,6.65
2022-11-14T23:51:08.613Z,5.25
2022-11-14T23:54:41.280Z,5.88
2022-11-14T23:58:02.238Z,5.55
